createdAt,value
2018-01-15T00:01:35.263Z,28.93
2018-01-15T00:04:03.970Z,28.00
2018-01-15T00:06:33.850Z,28.30
2018-01-15T00:09:02.786Z,29.17
2018-01-15T00:11:31.886Z,27.30
2018-01-15T00:14:01.769Z,28.37
2018-01-15T00:16:30.876Z,28.60
2018-01-15T00:18:59.810Z,29.37
2018-01-15T00:21:29.691Z,27.07
2018-01-15T00:23:58.785Z,28.13
2018-01-15T00:26:27.905Z,28.57
2018-01-15T00:28:56.797Z,28.20
2018-01-15T00:31:25.898Z,27.67
2018-01-15T00:33:55.775Z,28.47
2018-01-15T00:36:24.887Z,28.53
2018-01-15T00:38:54.009Z,29.13
2018-01-15T00:41:22.903Z,28.60
2018-01-15T00:43:52.036Z,28.80
2018-01-15T00:46:20.908Z,27.90
2018-01-15T00:48:49.470Z,30.33
2018-01-15T00:51:18.030Z,28.97
2018-01-15T00:53:46.943Z,29.13
2018-01-15T00:56:16.047Z,27.67
2018-01-15T00:58:45.161Z,30.53
2018-01-15T01:01:14.293Z,28.63
2018-01-15T01:03:43.399Z,29.07
2018-01-15T01:06:12.503Z,28.07
2018-01-15T01:08:42.385Z,30.27
2018-01-15T01:11:11.494Z,29.60
2018-01-15T01:13:40.604Z,28.83
2018-01-15T01:16:09.708Z,30.43
2018-01-15T01:18:38.841Z,29.40
2018-01-15T01:21:07.956Z,29.63
2018-01-15T01:23:36.858Z,29.93
2018-01-15T01:26:05.962Z,29.40
2018-01-15T01:28:35.060Z,29.47
2018-01-15T01:31:04.183Z,30.43
2018-01-15T01:33:33.309Z,29.80
2018-01-15T01:36:02.410Z,31.07
2018-01-15T01:38:31.516Z,31.33
2018-01-15T01:41:01.389Z,29.67
2018-01-15T01:43:30.497Z,31.07
2018-01-15T01:45:59.672Z,29.67
2018-01-15T01:48:28.796Z,30.70
2018-01-15T01:50:57.913Z,30.90
2018-01-15T01:53:27.016Z,32.90
2018-01-15T01:55:56.127Z,33.23
2018-01-15T01:58:25.219Z,36.37
2018-01-15T02:00:54.335Z,38.73
2018-01-15T02:03:23.452Z,42.03
2018-01-15T02:05:52.553Z,40.90
2018-01-15T02:08:21.665Z,43.27
2018-01-15T02:10:50.819Z,42.97
2018-01-15T02:13:20.718Z,43.67
2018-01-15T02:15:49.827Z,42.30
2018-01-15T02:18:19.716Z,38.97
2018-01-15T02:20:48.824Z,44.03
2018-01-15T02:23:17.930Z,43.03
2018-01-15T02:25:48.553Z,41.67
2018-01-15T02:28:17.343Z,40.43
2018-01-15T02:30:46.233Z,42.33
2018-01-15T02:33:15.346Z,41.93
2018-01-15T02:35:44.138Z,40.83
2018-01-15T02:38:13.258Z,41.73
2018-01-15T02:40:42.355Z,38.80
2018-01-15T02:43:11.471Z,37.80
2018-01-15T02:45:40.357Z,35.90
2018-01-15T02:48:09.253Z,34.47
2018-01-15T02:50:38.140Z,34.07
2018-01-15T02:53:07.045Z,34.23
2018-01-15T02:55:36.908Z,32.10
2018-01-15T02:58:06.012Z,34.90
2018-01-15T03:00:35.132Z,34.50
2018-01-15T03:03:03.908Z,32.93
2018-01-15T03:05:33.029Z,34.00
2018-01-15T03:08:02.123Z,34.27
2018-01-15T03:10:31.236Z,37.17
2018-01-15T03:13:00.457Z,36.27
2018-01-15T03:15:29.572Z,38.47
2018-01-15T03:17:58.677Z,36.87
2018-01-15T03:20:27.772Z,36.27
2018-01-15T03:22:56.876Z,36.07
2018-01-15T03:25:25.993Z,36.60
2018-01-15T03:27:55.110Z,38.10
2018-01-15T03:30:23.977Z,36.70
2018-01-15T03:32:53.085Z,35.13
2018-01-15T03:35:22.190Z,36.63
2018-01-15T03:37:51.311Z,36.53
2018-01-15T03:40:20.423Z,35.00
2018-01-15T03:42:49.877Z,34.93
2018-01-15T03:45:18.971Z,33.97
2018-01-15T03:47:48.857Z,34.23
2018-01-15T03:50:17.948Z,35.57
2018-01-15T03:52:47.072Z,35.90
2018-01-15T03:55:15.977Z,35.30
2018-01-15T03:57:45.085Z,36.73
2018-01-15T04:00:14.192Z,34.90
2018-01-15T04:02:44.067Z,34.97
2018-01-15T04:05:13.192Z,33.47
2018-01-15T04:07:43.051Z,35.53
2018-01-15T04:10:12.161Z,34.73
2018-01-15T04:12:41.253Z,36.73
2018-01-15T04:15:10.385Z,34.63
2018-01-15T04:17:39.513Z,35.07
2018-01-15T04:20:08.401Z,35.30
2018-01-15T04:22:37.511Z,35.77
2018-01-15T04:25:06.629Z,37.50
2018-01-15T04:27:35.738Z,36.33
2018-01-15T04:30:04.835Z,38.07
2018-01-15T04:32:33.969Z,37.00
2018-01-15T04:35:03.058Z,36.67
2018-01-15T04:37:32.167Z,37.80
2018-01-15T04:40:01.362Z,35.37
2018-01-15T04:42:30.277Z,36.47
2018-01-15T04:44:59.167Z,35.13
2018-01-15T04:47:28.273Z,36.50
2018-01-15T04:49:57.164Z,35.53
2018-01-15T04:52:26.285Z,36.00
2018-01-15T04:54:56.034Z,35.73
2018-01-15T04:57:25.146Z,36.07
2018-01-15T04:59:54.244Z,36.27
2018-01-15T05:02:23.340Z,35.70
2018-01-15T05:04:52.444Z,36.10
2018-01-15T05:07:21.532Z,36.47
2018-01-15T05:09:50.646Z,38.30
2018-01-15T05:12:19.769Z,36.40
2018-01-15T05:14:48.877Z,36.73
2018-01-15T05:17:17.989Z,36.87
2018-01-15T05:19:47.098Z,38.23
2018-01-15T05:22:16.209Z,37.97
2018-01-15T05:24:45.440Z,38.27
2018-01-15T05:27:14.560Z,39.27
2018-01-15T05:29:43.669Z,38.53
2018-01-15T05:32:12.768Z,35.73
2018-01-15T05:34:41.879Z,37.00
2018-01-15T05:37:10.991Z,38.77
2018-01-15T05:39:40.108Z,39.67
2018-01-15T05:42:09.989Z,38.40
2018-01-15T05:44:39.091Z,37.83
2018-01-15T05:47:08.207Z,38.93
2018-01-15T05:49:37.308Z,39.40
2018-01-15T05:52:06.439Z,38.27
2018-01-15T05:54:36.327Z,39.43
2018-01-15T05:57:06.029Z,40.20
2018-01-15T05:59:35.154Z,39.50
2018-01-15T06:02:04.257Z,39.33
2018-01-15T06:04:33.380Z,40.63
2018-01-15T06:07:02.572Z,39.97
2018-01-15T06:09:32.484Z,39.23
2018-01-15T06:12:01.587Z,39.80
2018-01-15T06:14:31.456Z,39.80
2018-01-15T06:17:00.590Z,39.77
2018-01-15T06:19:29.902Z,39.10
2018-01-15T06:21:59.004Z,39.30
2018-01-15T06:24:28.917Z,41.93
2018-01-15T06:26:58.017Z,43.70
2018-01-15T06:29:27.686Z,42.90
2018-01-15T06:31:56.625Z,42.60
2018-01-15T06:34:25.513Z,41.83
2018-01-15T06:36:54.418Z,41.97
2018-01-15T06:39:23.308Z,43.83
2018-01-15T06:41:52.444Z,43.50
2018-01-15T06:44:21.567Z,43.90
2018-01-15T06:46:50.680Z,43.80
2018-01-15T06:49:19.792Z,39.30
2018-01-15T06:51:48.930Z,41.63
2018-01-15T06:54:18.040Z,41.40
2018-01-15T06:56:47.156Z,42.33
2018-01-15T06:59:16.261Z,45.07
2018-01-15T07:01:45.368Z,43.97
2018-01-15T07:04:14.517Z,46.63
2018-01-15T07:06:44.408Z,44.93
2018-01-15T07:09:13.655Z,44.47
2018-01-15T07:11:42.735Z,44.63
2018-01-15T07:14:12.611Z,44.80
2018-01-15T07:16:41.723Z,44.63
2018-01-15T07:19:10.850Z,43.40
2018-01-15T07:21:40.038Z,42.33
2018-01-15T07:24:09.223Z,43.03
2018-01-15T07:26:39.239Z,40.23
2018-01-15T07:29:08.369Z,40.43
2018-01-15T07:31:37.488Z,40.97
2018-01-15T07:34:06.573Z,38.07
2018-01-15T07:36:35.686Z,40.53
2018-01-15T07:39:04.984Z,40.00
2018-01-15T07:41:34.096Z,40.20
2018-01-15T07:44:03.958Z,39.03
2018-01-15T07:46:33.070Z,38.73
2018-01-15T07:49:02.180Z,37.47
2018-01-15T07:51:31.304Z,36.03
2018-01-15T07:54:00.430Z,38.73
2018-01-15T07:56:29.542Z,34.27
2018-01-15T07:58:58.641Z,35.70
2018-01-15T08:01:27.767Z,35.03
2018-01-15T08:03:56.890Z,32.03
2018-01-15T08:06:26.009Z,31.07
2018-01-15T08:08:55.116Z,29.80
2018-01-15T08:11:24.238Z,29.97
2018-01-15T08:13:53.355Z,26.60
2018-01-15T08:16:22.624Z,25.83
2018-01-15T08:18:51.503Z,23.43
2018-01-15T08:21:21.418Z,23.27
2018-01-15T08:23:50.532Z,22.10
2018-01-15T08:26:19.426Z,20.77
2018-01-15T08:28:48.332Z,19.93
2018-01-15T08:31:17.467Z,19.30
2018-01-15T08:33:46.350Z,19.47
2018-01-15T08:36:15.481Z,17.97
2018-01-15T08:38:44.592Z,18.97
2018-01-15T08:41:13.712Z,18.40
2018-01-15T08:43:43.607Z,18.13
2018-01-15T08:46:12.721Z,19.93
2018-01-15T08:48:42.592Z,17.97
2018-01-15T08:51:11.730Z,18.80
2018-01-15T08:53:40.900Z,18.57
2018-01-15T08:56:10.016Z,18.23
2018-01-15T08:58:39.134Z,18.80
2018-01-15T09:01:09.018Z,17.60
2018-01-15T09:03:38.398Z,19.20
2018-01-15T09:06:07.514Z,19.90
2018-01-15T09:08:36.628Z,19.33
2018-01-15T09:11:05.759Z,18.93
2018-01-15T09:13:34.876Z,17.73
2018-01-15T09:16:04.415Z,18.10
2018-01-15T09:18:33.606Z,19.13
2018-01-15T09:21:02.747Z,20.77
2018-01-15T09:23:31.856Z,19.57
2018-01-15T09:26:00.973Z,18.43
2018-01-15T09:28:30.081Z,19.33
2018-01-15T09:30:59.197Z,18.83
2018-01-15T09:33:28.329Z,19.87
2018-01-15T09:35:57.431Z,20.17
2018-01-15T09:38:26.551Z,20.50
2018-01-15T09:40:55.665Z,21.50
2018-01-15T09:43:24.780Z,21.53
2018-01-15T09:45:54.665Z,22.63
2018-01-15T09:48:23.778Z,22.27
2018-01-15T09:50:52.716Z,25.67
2018-01-15T09:53:22.592Z,23.57
2018-01-15T09:55:51.716Z,25.57
2018-01-15T09:58:20.632Z,27.43
2018-01-15T10:00:49.746Z,26.57
2018-01-15T10:03:18.876Z,28.70
2018-01-15T10:05:48.046Z,28.60
2018-01-15T10:08:17.210Z,28.43
2018-01-15T10:10:46.334Z,29.93
2018-01-15T10:13:16.191Z,27.97
2018-01-15T10:15:45.330Z,28.23
2018-01-15T10:18:14.438Z,29.30
2018-01-15T10:20:43.328Z,29.33
2018-01-15T10:23:12.245Z,28.63
2018-01-15T10:25:41.894Z,29.43
2018-01-15T10:28:12.844Z,28.63
2018-01-15T10:30:41.944Z,28.27
2018-01-15T10:33:10.853Z,29.40
2018-01-15T10:35:39.971Z,27.43
2018-01-15T10:38:09.093Z,27.33
2018-01-15T10:40:38.286Z,26.10
2018-01-15T10:43:08.179Z,26.10
2018-01-15T10:45:37.358Z,25.40
2018-01-15T10:48:06.482Z,24.43
2018-01-15T10:50:35.595Z,24.00
2018-01-15T10:53:04.722Z,22.20
2018-01-15T10:55:33.845Z,22.77
2018-01-15T10:58:03.136Z,22.40
2018-01-15T11:00:37.662Z,22.33
2018-01-15T11:03:06.961Z,21.57
2018-01-15T11:05:36.082Z,20.63
2018-01-15T11:08:05.192Z,20.53
2018-01-15T11:10:34.310Z,20.57
2018-01-15T11:13:03.429Z,20.70
2018-01-15T11:15:32.586Z,18.80
2018-01-15T11:18:01.478Z,21.00
2018-01-15T11:20:30.589Z,18.60
2018-01-15T11:22:59.711Z,20.07
2018-01-15T11:25:28.903Z,19.93
2018-01-15T11:27:58.161Z,19.60
2018-01-15T11:30:27.295Z,21.00
2018-01-15T11:32:56.413Z,18.10
2018-01-15T11:35:25.544Z,17.90
2018-01-15T11:37:54.684Z,19.47
2018-01-15T11:40:23.801Z,17.43
2018-01-15T11:42:52.956Z,16.07
2018-01-15T11:45:22.838Z,16.47
2018-01-15T11:47:51.963Z,13.27
2018-01-15T11:50:21.079Z,14.10
2018-01-15T11:52:50.215Z,13.90
2018-01-15T11:55:19.353Z,12.63
2018-01-15T11:57:48.467Z,11.23
2018-01-15T12:00:17.579Z,10.67
2018-01-15T12:02:47.260Z,11.70
2018-01-15T12:05:16.145Z,9.07
2018-01-15T12:07:45.282Z,10.27
2018-01-15T12:10:14.185Z,10.37
2018-01-15T12:12:43.104Z,10.63
2018-01-15T12:15:12.246Z,9.70
2018-01-15T12:17:41.348Z,9.40
2018-01-15T12:20:10.488Z,8.77
2018-01-15T12:22:39.576Z,8.20
2018-01-15T12:25:08.664Z,7.20
2018-01-15T12:27:37.774Z,7.93
2018-01-15T12:30:06.894Z,7.90
2018-01-15T12:32:36.011Z,6.90
2018-01-15T12:35:05.118Z,6.60
2018-01-15T12:37:34.233Z,7.60
2018-01-15T12:40:03.327Z,7.37
2018-01-15T12:42:32.650Z,7.43
2018-01-15T12:45:01.765Z,7.13
2018-01-15T12:47:31.678Z,8.07
2018-01-15T12:50:00.770Z,8.60
2018-01-15T12:52:30.404Z,8.53
2018-01-15T12:54:59.520Z,8.50
2018-01-15T12:57:28.618Z,7.40
2018-01-15T12:59:57.726Z,7.53
2018-01-15T13:02:26.838Z,8.57
2018-01-15T13:04:55.945Z,7.63
2018-01-15T13:07:36.257Z,7.90
2018-01-15T13:10:05.341Z,7.27
2018-01-15T13:12:34.458Z,7.47
2018-01-15T13:15:03.986Z,8.83
2018-01-15T13:17:33.106Z,7.97
2018-01-15T13:20:02.207Z,8.20
2018-01-15T13:22:31.338Z,7.97
2018-01-15T13:25:00.464Z,7.90
2018-01-15T13:27:29.590Z,8.30
2018-01-15T13:29:58.680Z,8.20
2018-01-15T13:32:27.977Z,8.97
2018-01-15T13:34:57.079Z,8.50
2018-01-15T13:37:26.233Z,8.60
2018-01-15T13:39:55.348Z,9.53
2018-01-15T13:42:24.457Z,8.17
2018-01-15T13:44:53.565Z,7.10
2018-01-15T13:47:22.455Z,8.73
2018-01-15T13:49:51.344Z,9.03
2018-01-15T13:52:20.240Z,8.17
2018-01-15T13:54:49.142Z,9.03
2018-01-15T13:57:18.241Z,8.50
2018-01-15T13:59:47.158Z,8.20
2018-01-15T14:02:17.206Z,8.20
2018-01-15T14:04:46.339Z,7.60
2018-01-15T14:07:15.445Z,8.10
2018-01-15T14:09:44.591Z,8.30
2018-01-15T14:12:13.701Z,7.17
2018-01-15T14:14:42.802Z,6.73
2018-01-15T14:17:11.907Z,6.83
2018-01-15T14:19:41.790Z,6.20
2018-01-15T14:22:10.919Z,7.27
2018-01-15T14:24:40.031Z,6.40
2018-01-15T14:27:09.158Z,6.17
2018-01-15T14:29:38.294Z,7.37
2018-01-15T14:32:07.400Z,6.70
2018-01-15T14:34:36.494Z,6.70
2018-01-15T14:37:05.793Z,6.93
2018-01-15T14:39:34.900Z,6.87
2018-01-15T14:42:04.024Z,6.00
2018-01-15T14:44:33.129Z,6.23
2018-01-15T14:47:02.233Z,6.80
2018-01-15T14:49:31.345Z,6.47
2018-01-15T14:52:00.465Z,6.23
2018-01-15T14:54:29.603Z,6.03
2018-01-15T14:56:58.703Z,6.17
2018-01-15T14:59:28.703Z,6.77
2018-01-15T15:01:57.835Z,5.47
2018-01-15T15:04:26.915Z,5.13
2018-01-15T15:06:56.020Z,5.10
2018-01-15T15:09:24.781Z,4.80
2018-01-15T15:11:53.905Z,4.73
2018-01-15T15:14:23.439Z,5.10
2018-01-15T15:16:52.572Z,5.40
2018-01-15T15:19:21.653Z,5.40
2018-01-15T15:21:50.791Z,5.57
2018-01-15T15:24:19.885Z,5.30
2018-01-15T15:26:49.002Z,5.43
2018-01-15T15:29:18.103Z,5.70
2018-01-15T15:31:47.208Z,4.93
2018-01-15T15:34:17.098Z,5.17
2018-01-15T15:36:46.216Z,4.70
2018-01-15T15:39:15.338Z,4.77
2018-01-15T15:41:44.471Z,4.63
2018-01-15T15:44:13.587Z,4.23
2018-01-15T15:46:42.728Z,4.57
2018-01-15T15:49:11.486Z,4.27
2018-01-15T15:51:40.602Z,4.37
2018-01-15T15:54:09.487Z,4.20
2018-01-15T15:56:38.381Z,4.07
2018-01-15T15:59:07.484Z,4.20
2018-01-15T16:01:36.601Z,3.60
2018-01-15T16:04:05.490Z,4.37
2018-01-15T16:06:34.629Z,3.70
2018-01-15T16:09:03.498Z,3.67
2018-01-15T16:11:32.625Z,3.57
2018-01-15T16:14:01.727Z,3.83
2018-01-15T16:16:30.843Z,4.10
2018-01-15T16:18:59.961Z,3.77
2018-01-15T16:21:35.390Z,3.80
2018-01-15T16:24:04.509Z,3.80
2018-01-15T16:26:33.599Z,3.37
2018-01-15T16:29:02.725Z,3.30
2018-01-15T16:31:31.810Z,4.37
2018-01-15T16:34:00.947Z,3.70
2018-01-15T16:36:30.827Z,3.60
2018-01-15T16:38:59.942Z,4.17
2018-01-15T16:41:29.053Z,3.77
2018-01-15T16:43:58.165Z,4.20
2018-01-15T16:46:28.048Z,3.80
2018-01-15T16:48:57.189Z,4.13
2018-01-15T16:51:26.292Z,3.90
2018-01-15T16:53:55.406Z,3.87
2018-01-15T16:56:24.537Z,3.63
2018-01-15T16:58:53.658Z,3.93
2018-01-15T17:01:22.561Z,3.90
2018-01-15T17:03:51.680Z,3.83
2018-01-15T17:06:21.548Z,4.17
2018-01-15T17:08:50.647Z,4.30
2018-01-15T17:11:19.847Z,4.27
2018-01-15T17:13:48.949Z,4.57
2018-01-15T17:16:18.057Z,5.30
2018-01-15T17:18:47.171Z,5.30
2018-01-15T17:21:16.276Z,5.60
2018-01-15T17:23:45.386Z,5.10
2018-01-15T17:26:14.292Z,6.13
2018-01-15T17:28:43.152Z,5.60
2018-01-15T17:31:12.046Z,6.70
2018-01-15T17:33:40.936Z,7.00
2018-01-15T17:36:09.823Z,6.10
2018-01-15T17:38:38.693Z,6.27
2018-01-15T17:41:07.583Z,6.20
2018-01-15T17:43:36.459Z,6.87
2018-01-15T17:46:05.341Z,6.90
2018-01-15T17:48:34.034Z,6.60
2018-01-15T17:51:02.928Z,6.23
2018-01-15T17:53:31.830Z,7.13
2018-01-15T17:56:00.987Z,9.27
2018-01-15T17:58:29.894Z,7.43
2018-01-15T18:00:58.792Z,6.93
2018-01-15T18:03:27.651Z,7.60
2018-01-15T18:05:56.759Z,8.10
2018-01-15T18:08:25.659Z,8.40
2018-01-15T18:10:54.553Z,8.00
2018-01-15T18:13:23.424Z,8.73
2018-01-15T18:15:52.388Z,9.17
2018-01-15T18:18:21.314Z,10.27
2018-01-15T18:20:50.210Z,11.43
2018-01-15T18:23:19.332Z,11.47
2018-01-15T18:25:48.224Z,12.60
2018-01-15T18:28:17.121Z,12.83
2018-01-15T18:30:46.022Z,13.37
2018-01-15T18:33:15.011Z,13.13
2018-01-15T18:35:43.553Z,13.83
2018-01-15T18:38:12.473Z,13.90
2018-01-15T18:40:41.368Z,13.40
2018-01-15T18:43:11.034Z,13.67
2018-01-15T18:45:39.934Z,13.37
2018-01-15T18:48:09.075Z,12.70
2018-01-15T18:50:37.952Z,9.53
2018-01-15T18:53:06.871Z,8.27
2018-01-15T18:55:35.743Z,6.67
2018-01-15T18:58:04.646Z,4.20
2018-01-15T19:00:33.549Z,3.60
2018-01-15T19:03:02.441Z,4.47
2018-01-15T19:05:31.346Z,3.40
2018-01-15T19:08:00.258Z,3.10
2018-01-15T19:10:29.171Z,2.57
2018-01-15T19:12:58.060Z,2.40
2018-01-15T19:15:26.963Z,2.93
2018-01-15T19:17:55.899Z,3.00
2018-01-15T19:20:24.804Z,2.37
2018-01-15T19:22:53.692Z,2.73
2018-01-15T19:25:22.608Z,2.63
2018-01-15T19:27:52.070Z,1.77
2018-01-15T19:30:20.800Z,2.47
2018-01-15T19:32:49.518Z,2.50
2018-01-15T19:35:18.232Z,2.40
2018-01-15T19:37:46.941Z,3.03
2018-01-15T19:40:16.435Z,3.10
2018-01-15T19:42:45.150Z,2.60
2018-01-15T19:45:19.569Z,3.20
2018-01-15T19:47:53.985Z,2.90
2018-01-15T19:50:28.431Z,2.87
2018-01-15T19:53:03.620Z,2.20
2018-01-15T19:55:38.037Z,3.17
2018-01-15T19:58:12.347Z,2.77
2018-01-15T20:00:56.034Z,2.13
2018-01-15T20:03:30.484Z,2.27
2018-01-15T20:06:04.793Z,2.53
2018-01-15T20:08:39.991Z,2.53
2018-01-15T20:11:09.820Z,2.83
2018-01-15T20:13:38.745Z,3.27
2018-01-15T20:16:07.666Z,2.37
2018-01-15T20:18:36.818Z,2.90
2018-01-15T20:21:05.695Z,1.93
2018-01-15T20:23:34.590Z,2.20
2018-01-15T20:26:03.504Z,2.80
2018-01-15T20:28:32.417Z,2.10
2018-01-15T20:31:01.334Z,2.70
2018-01-15T20:33:30.439Z,2.50
2018-01-15T20:35:59.358Z,2.23
2018-01-15T20:38:28.544Z,2.80
2018-01-15T20:40:57.667Z,2.63
2018-01-15T20:43:26.805Z,2.57
2018-01-15T20:45:55.685Z,2.40
2018-01-15T20:48:24.608Z,2.80
2018-01-15T20:53:32.344Z,2.57
2018-01-15T20:56:01.250Z,2.70
2018-01-15T20:58:30.131Z,3.20
2018-01-15T21:00:59.027Z,2.93
2018-01-15T21:03:28.097Z,3.13
2018-01-15T21:05:57.297Z,3.00
2018-01-15T21:08:27.000Z,2.60
2018-01-15T21:10:55.893Z,3.13
2018-01-15T21:13:24.874Z,4.03
2018-01-15T21:15:53.763Z,3.87
2018-01-15T21:18:22.411Z,4.47
2018-01-15T21:20:51.292Z,4.10
2018-01-15T21:23:20.960Z,4.83
2018-01-15T21:25:49.870Z,3.77
2018-01-15T21:28:18.808Z,4.63
2018-01-15T21:30:47.712Z,4.70
2018-01-15T21:33:16.587Z,3.90
2018-01-15T21:35:45.476Z,4.17
2018-01-15T21:38:14.367Z,3.57
2018-01-15T21:40:43.470Z,3.03
2018-01-15T21:43:13.106Z,2.77
2018-01-15T21:45:41.668Z,2.23
2018-01-15T21:48:10.577Z,1.80
2018-01-15T21:50:39.694Z,1.70
2018-01-15T21:53:08.823Z,2.20
2018-01-15T21:55:38.464Z,2.57
2018-01-15T21:58:07.847Z,2.33
2018-01-15T22:00:36.617Z,2.43
2018-01-15T22:03:05.757Z,2.20
2018-01-15T22:05:34.867Z,3.10
2018-01-15T22:08:04.778Z,3.17
2018-01-15T22:10:34.242Z,2.80
2018-01-15T22:13:03.664Z,3.30
2018-01-15T22:15:32.800Z,2.83
2018-01-15T22:18:01.893Z,2.23
2018-01-15T22:20:40.100Z,3.70
2018-01-15T22:23:11.910Z,2.60
2018-01-15T22:25:41.290Z,2.90
2018-01-15T22:28:10.914Z,3.20
2018-01-15T22:30:40.050Z,3.60
2018-01-15T22:33:08.989Z,3.23
2018-01-15T22:35:37.852Z,2.77
2018-01-15T22:38:06.759Z,3.20
2018-01-15T22:40:36.203Z,3.20
2018-01-15T22:43:05.289Z,4.17
2018-01-15T22:45:34.422Z,3.20
2018-01-15T22:48:03.574Z,4.13
2018-01-15T22:50:32.669Z,2.60
2018-01-15T22:53:01.790Z,3.13
2018-01-15T22:55:30.947Z,3.43
2018-01-15T22:57:59.941Z,2.67
2018-01-15T23:00:29.103Z,2.93
2018-01-15T23:02:57.973Z,2.20
2018-01-15T23:05:26.859Z,2.60
2018-01-15T23:07:55.747Z,3.40
2018-01-15T23:10:25.076Z,3.03
2018-01-15T23:12:53.950Z,3.33
2018-01-15T23:15:22.847Z,2.30
2018-01-15T23:17:51.725Z,2.80
2018-01-15T23:20:20.636Z,2.50
2018-01-15T23:22:49.488Z,2.87
2018-01-15T23:25:18.612Z,1.90
2018-01-15T23:27:47.512Z,2.13
2018-01-15T23:30:16.422Z,3.13
2018-01-15T23:32:45.287Z,2.43
2018-01-15T23:35:14.190Z,2.67
2018-01-15T23:37:43.068Z,2.67
2018-01-15T23:40:11.969Z,2.37
2018-01-15T23:42:40.837Z,2.17
2018-01-15T23:45:09.738Z,2.60
2018-01-15T23:47:38.613Z,1.83
2018-01-15T23:50:08.264Z,2.37
2018-01-15T23:52:37.149Z,1.63
2018-01-15T23:55:05.727Z,2.70
2018-01-15T23:57:34.617Z,2.30
